Matson Kodiak — KGTZ — position and weather

sailwx.info

Track history (hours):
 
Tides and Currents Weather Stations Pressure Air Temp Water Temp Dewpoint Dewpoint Depression Visibility Wind Speed Wind Dir Waves Ship Positions

Matson Kodiak

Owner: Horizon Lines Alaska Vessels, LLC, Oakland, CA. More information available from US FCC via Universal Licensing System and Coast Guard Vessel Documentation Center.

Last reported at 2018-Aug-14 18:00 UTC. Time now 2018-Aug-14 19:30 UTC.
Position N 56°12' W 145°30'.

Type: Cargo ship. MMSI: 366793000.

Wind from 270 at 24 knots

Barometer 1015.5 mb
Air temperature 14.4 ° C
Visibility: greater than 10.8 NM
Dewpoint 12.5 ° C
Water temperature 13.3 ° C

Date/timePositionNaut miles runAvg speedWind from/ knotsBaromVisibWave heightAir tempDewpointWater temp
2018-Aug-14 18:00N 56°12' W 145°30'12220.4 270 / 241015.510.8 14.412.513.3
2018-Aug-14 12:00N 57°00' W 148°54'   270 / 241012.410.8 10.6 7.312.8
2018-Aug-11 18:00N 57°36' W 146°06'43518.1 230 / 291019.4 14.413.614.4
2018-Aug-10 18:00N 53°36' W 135°24'11819.7 320 / 111020.610.8 18.312.815.0
2018-Aug-10 12:00N 52°24' W 132°48'7215.9 350 / 121017.110.8 15.014.015.6
2018-Aug-10 07:27N 51°36' W 131°21'2118.7
2018-Aug-10 06:19N 51°22' W 130°56'618.7
2018-Aug-10 06:00N 51°18' W 130°48'219.3 240 / 51017.010.8 16.714.916.7
2018-Aug-10 05:54N 51°17' W 130°46'1118.8
2018-Aug-10 05:17N 51°09' W 130°33'618.9
2018-Aug-10 04:59N 51°05' W 130°26'919.2
2018-Aug-10 04:30N 50°59' W 130°15'1019.1
2018-Aug-10 04:00N 50°53' W 130°04'918.2
2018-Aug-10 03:30N 50°47' W 129°52'918.2
2018-Aug-10 03:00N 50°41' W 129°41'1218.8
2018-Aug-10 02:21N 50°34' W 129°25'1418.4
2018-Aug-10 01:34N 50°25' W 129°07'118.8
2018-Aug-10 01:30N 50°25' W 129°06'1118.4
2018-Aug-10 00:55N 50°18' W 128°52'818.8
2018-Aug-10 00:29N 50°14' W 128°42'1121.7
2018-Aug-10 00:00N 50°06' W 128°30'232.0 320 / 51017.610.8 16.714.915.0
2018-Aug-09 23:56N 50°08' W 128°29'1617.8
2018-Aug-09 23:02N 49°58' W 128°09'8818.5
2018-Aug-09 18:15N 49°05' W 126°20'1019.3
2018-Aug-09 17:45N 48°60' W 126°08'518.9
2018-Aug-09 17:30N 48°57' W 126°02'919.0
2018-Aug-09 17:00N 48°51' W 125°51'918.8
2018-Aug-09 16:30N 48°46' W 125°39'1019.3
2018-Aug-09 16:00N 48°42' W 125°25'1019.5
2018-Aug-09 15:30N 48°39' W 125°11'1019.5
2018-Aug-09 15:00N 48°35' W 124°58'1019.8
2018-Aug-09 14:30N 48°31' W 124°44'1020.1
2018-Aug-09 14:00N 48°27' W 124°30'1020.4
2018-Aug-09 13:30N 48°23' W 124°16'1020.3
2018-Aug-09 13:00N 48°19' W 124°02'1020.1
2018-Aug-09 12:30N 48°16' W 123°47'1320.2
2018-Aug-09 11:50N 48°14' W 123°27'616.8
2018-Aug-09 11:28N 48°09' W 123°23'715.6
2018-Aug-09 11:00N 48°11' W 123°13'1019.4
2018-Aug-09 10:29N 48°12' W 122°58'1018.6
2018-Aug-09 09:57N 48°09' W 122°43'818.6
2018-Aug-09 09:30N 48°02' W 122°38'918.2
2018-Aug-09 09:00N 47°55' W 122°29'918.6
2018-Aug-09 08:30N 47°46' W 122°26'917.2
2018-Aug-09 08:00N 47°37' W 122°27'917.3
2018-Aug-09 07:31N 47°29' W 122°25'815.7
2018-Aug-09 07:00N 47°21' W 122°24'5 9.4
2018-Aug-09 06:30N 47°16' W 122°25'0 0.5
2018-Aug-09 05:59N 47°16' W 122°25'0 0.0
2018-Aug-09 05:27N 47°16' W 122°25'0 0.0
2018-Aug-09 04:57N 47°16' W 122°25'0 0.0
2018-Aug-09 04:27N 47°16' W 122°25'0 0.0
2018-Aug-09 03:45N 47°16' W 122°25'0 0.0
2018-Aug-09 03:15N 47°16' W 122°25'0 0.0
2018-Aug-09 02:57N 47°16' W 122°25'0 0.0
2018-Aug-09 02:27N 47°16' W 122°25'0 0.0
2018-Aug-09 01:57N 47°16' W 122°25'0 0.0
2018-Aug-09 01:27N 47°16' W 122°25'0 0.0
2018-Aug-09 00:57N 47°16' W 122°25'0 0.0
2018-Aug-09 00:27N 47°16' W 122°25'0 0.0
2018-Aug-08 23:57N 47°16' W 122°25'0 0.0
2018-Aug-08 23:24N 47°16' W 122°25'0 0.0
2018-Aug-08 22:57N 47°16' W 122°25'0 0.0
2018-Aug-08 21:45N 47°16' W 122°25'0 0.0
2018-Aug-08 21:24N 47°16' W 122°25'0 0.0
2018-Aug-08 20:57N 47°16' W 122°25'0 0.0
2018-Aug-08 20:27N 47°16' W 122°25'0 0.0
2018-Aug-08 19:57N 47°16' W 122°25'0 0.0
2018-Aug-08 19:21N 47°16' W 122°25'0 0.0
2018-Aug-08 18:51N 47°16' W 122°25'0 0.0
2018-Aug-08 18:27N 47°16' W 122°25'0 0.0
2018-Aug-08 17:51N 47°16' W 122°25'0 0.0
2018-Aug-08 16:48N 47°16' W 122°25'0 0.0
2018-Aug-08 16:30N 47°16' W 122°25'0 0.0
2018-Aug-08 15:54N 47°16' W 122°25'0 0.0
2018-Aug-08 15:21N 47°16' W 122°25'0 0.0
2018-Aug-08 15:00N 47°16' W 122°25'0 0.0
2018-Aug-08 14:30N 47°16' W 122°25'0 0.0
2018-Aug-08 14:00N 47°16' W 122°25'0 0.0
2018-Aug-08 13:27N 47°16' W 122°25'0 0.0
2018-Aug-08 13:00N 47°16' W 122°25'0 0.0
2018-Aug-08 12:27N 47°16' W 122°25'0 0.0
2018-Aug-08 11:51N 47°16' W 122°25'0 0.0
2018-Aug-08 11:30N 47°16' W 122°25'0 0.0
2018-Aug-08 11:00N 47°16' W 122°25'0 0.0
2018-Aug-08 10:30N 47°16' W 122°25'0 0.0
2018-Aug-08 10:00N 47°16' W 122°25'0 0.0
2018-Aug-08 09:30N 47°16' W 122°25'0 0.0
2018-Aug-08 09:00N 47°16' W 122°25'0 0.0
2018-Aug-08 08:30N 47°16' W 122°25'0 0.0
2018-Aug-08 08:00N 47°16' W 122°25'0 0.0
2018-Aug-08 07:30N 47°16' W 122°25'0 0.0
2018-Aug-08 07:00N 47°16' W 122°25'0 0.0
2018-Aug-08 06:30N 47°16' W 122°25'0 0.0
2018-Aug-08 06:00N 47°16' W 122°25'0 0.0
2018-Aug-08 05:30N 47°16' W 122°25'0 0.0
2018-Aug-08 05:00N 47°16' W 122°25'0 0.0
2018-Aug-08 04:30N 47°16' W 122°25'0 0.0
2018-Aug-08 04:00N 47°16' W 122°25'0 0.0
2018-Aug-08 03:30N 47°16' W 122°25'0 0.0
2018-Aug-08 03:00N 47°16' W 122°25'0 0.0
2018-Aug-08 02:30N 47°16' W 122°25'0 0.0
2018-Aug-08 02:00N 47°16' W 122°25'0 0.0
2018-Aug-07 23:29N 47°16' W 122°25'1 1.2
2018-Aug-07 22:59N 47°17' W 122°26'2 4.7
2018-Aug-07 22:29N 47°18' W 122°28'612.6
2018-Aug-07 22:00N 47°23' W 122°22'816.3
2018-Aug-07 21:30N 47°31' W 122°26'917.6
2018-Aug-07 21:00N 47°39' W 122°28'1019.2
2018-Aug-07 20:30N 47°49' W 122°27'1019.8
2018-Aug-07 19:59N 47°58' W 122°35'1221.0
2018-Aug-07 19:24N 48°09' W 122°44'1320.4
2018-Aug-07 18:45N 48°12' W 123°03'720.3
2018-Aug-07 18:25N 48°12' W 123°13'914.7
2018-Aug-07 17:46N 48°11' W 123°27'714.9
2018-Aug-07 17:17N 48°14' W 123°38'515.2
2018-Aug-07 16:57N 48°14' W 123°45'715.7
2018-Aug-07 16:29N 48°14' W 123°57'919.0
2018-Aug-07 16:00N 48°18' W 124°09'918.9
2018-Aug-07 15:30N 48°22' W 124°21'917.6
2018-Aug-07 15:01N 48°26' W 124°33'917.1
2018-Aug-07 14:31N 48°28' W 124°45'917.8
2018-Aug-07 14:01N 48°28' W 124°59'918.0
2018-Aug-07 13:31N 48°28' W 125°12'917.9
2018-Aug-07 13:00N 48°28' W 125°26'918.1
2018-Aug-07 12:31N 48°28' W 125°40'918.1
2018-Aug-07 12:00N 48°31' W 125°53'918.0
2018-Aug-07 11:31N 48°33' W 126°06'918.4
2018-Aug-07 11:00N 48°33' W 126°20'918.2
2018-Aug-07 10:31N 48°34' W 126°33'918.2
2018-Aug-07 10:01N 48°34' W 126°47'918.9
2018-Aug-07 09:30N 48°34' W 127°02'1218.9
2018-Aug-07 08:52N 48°36' W 127°20'918.6
2018-Aug-07 08:25N 48°36' W 127°33'1618.7
2018-Aug-07 07:32N 48°38' W 127°57'2818.0
2018-Aug-07 06:00N 48°48' W 128°36'823.1 150 / 51020.010.8 16.714.915.6
2018-Aug-07 05:39N 48°52' W 128°46'6118.4
2018-Aug-07 02:21N 49°18' W 130°10'4017.2
2018-Aug-07 00:00N 49°36' W 131°06'32918.3 140 / 151019.9 5.4 17.215.416.7
2018-Aug-06 06:00N 51°30' W 139°12'10818.0 080 / 241013.0 5.4 14.412.515.0
2018-Aug-06 00:00N 52°00' W 142°00'11118.4 050 / 151012.7 0.3 16.114.315.0
2018-Aug-05 18:00N 52°30' W 144°54'11118.4 050 / 241012.0 0.3 13.311.412.8
2018-Aug-05 12:00N 52°48' W 147°54'11418.9 360 / 191012.810.8 12.210.212.8
2018-Aug-05 06:00N 53°06' W 151°00'12320.5 330 / 191013.5 12.210.212.2
2018-Aug-05 00:00N 53°18' W 154°24'10818.0 300 / 151014.910.8 16.112.411.1
2018-Aug-04 18:00N 53°30' W 157°24'   270 / 201016.7 13.912.011.7
Track history (hours):
 
Tides and Currents Weather Stations Pressure Air Temp Water Temp Dewpoint Dewpoint Depression Visibility Wind Speed Wind Dir Waves Ship Positions

Matson Kodiak

Owner: Horizon Lines Alaska Vessels, LLC, Oakland, CA. More information available from US FCC via Universal Licensing System and Coast Guard Vessel Documentation Center.

Last reported at 2018-Aug-14 18:00 UTC. Time now 2018-Aug-14 19:30 UTC.
Position N 56°12' W 145°30'.

Type: Cargo ship. MMSI: 366793000.

Wind from 270 at 24 knots

Barometer 1015.5 mb
Air temperature 14.4 ° C
Visibility: greater than 10.8 NM
Dewpoint 12.5 ° C
Water temperature 13.3 ° C

Date/timePositionNaut miles runAvg speedWind from/ knotsBaromVisibWave heightAir tempDewpointWater temp
2018-Aug-14 18:00N 56°12' W 145°30'12220.4 270 / 241015.510.8 14.412.513.3
2018-Aug-14 12:00N 57°00' W 148°54'   270 / 241012.410.8 10.6 7.312.8
2018-Aug-11 18:00N 57°36' W 146°06'43518.1 230 / 291019.4 14.413.614.4
2018-Aug-10 18:00N 53°36' W 135°24'11819.7 320 / 111020.610.8 18.312.815.0
2018-Aug-10 12:00N 52°24' W 132°48'7215.9 350 / 121017.110.8 15.014.015.6
2018-Aug-10 07:27N 51°36' W 131°21'2118.7
2018-Aug-10 06:19N 51°22' W 130°56'618.7
2018-Aug-10 06:00N 51°18' W 130°48'219.3 240 / 51017.010.8 16.714.916.7
2018-Aug-10 05:54N 51°17' W 130°46'1118.8
2018-Aug-10 05:17N 51°09' W 130°33'618.9
2018-Aug-10 04:59N 51°05' W 130°26'919.2
2018-Aug-10 04:30N 50°59' W 130°15'1019.1
2018-Aug-10 04:00N 50°53' W 130°04'918.2
2018-Aug-10 03:30N 50°47' W 129°52'918.2
2018-Aug-10 03:00N 50°41' W 129°41'1218.8
2018-Aug-10 02:21N 50°34' W 129°25'1418.4
2018-Aug-10 01:34N 50°25' W 129°07'118.8
2018-Aug-10 01:30N 50°25' W 129°06'1118.4
2018-Aug-10 00:55N 50°18' W 128°52'818.8
2018-Aug-10 00:29N 50°14' W 128°42'1121.7
2018-Aug-10 00:00N 50°06' W 128°30'232.0 320 / 51017.610.8 16.714.915.0
2018-Aug-09 23:56N 50°08' W 128°29'1617.8
2018-Aug-09 23:02N 49°58' W 128°09'8818.5
2018-Aug-09 18:15N 49°05' W 126°20'1019.3
2018-Aug-09 17:45N 48°60' W 126°08'518.9
2018-Aug-09 17:30N 48°57' W 126°02'919.0
2018-Aug-09 17:00N 48°51' W 125°51'918.8
2018-Aug-09 16:30N 48°46' W 125°39'1019.3
2018-Aug-09 16:00N 48°42' W 125°25'1019.5
2018-Aug-09 15:30N 48°39' W 125°11'1019.5
2018-Aug-09 15:00N 48°35' W 124°58'1019.8
2018-Aug-09 14:30N 48°31' W 124°44'1020.1
2018-Aug-09 14:00N 48°27' W 124°30'1020.4
2018-Aug-09 13:30N 48°23' W 124°16'1020.3
2018-Aug-09 13:00N 48°19' W 124°02'1020.1
2018-Aug-09 12:30N 48°16' W 123°47'1320.2
2018-Aug-09 11:50N 48°14' W 123°27'616.8
2018-Aug-09 11:28N 48°09' W 123°23'715.6
2018-Aug-09 11:00N 48°11' W 123°13'1019.4
2018-Aug-09 10:29N 48°12' W 122°58'1018.6
2018-Aug-09 09:57N 48°09' W 122°43'818.6
2018-Aug-09 09:30N 48°02' W 122°38'918.2
2018-Aug-09 09:00N 47°55' W 122°29'918.6
2018-Aug-09 08:30N 47°46' W 122°26'917.2
2018-Aug-09 08:00N 47°37' W 122°27'917.3
2018-Aug-09 07:31N 47°29' W 122°25'815.7
2018-Aug-09 07:00N 47°21' W 122°24'5 9.4
2018-Aug-09 06:30N 47°16' W 122°25'0 0.5
2018-Aug-09 05:59N 47°16' W 122°25'0 0.0
2018-Aug-09 05:27N 47°16' W 122°25'0 0.0
2018-Aug-09 04:57N 47°16' W 122°25'0 0.0
2018-Aug-09 04:27N 47°16' W 122°25'0 0.0
2018-Aug-09 03:45N 47°16' W 122°25'0 0.0
2018-Aug-09 03:15N 47°16' W 122°25'0 0.0
2018-Aug-09 02:57N 47°16' W 122°25'0 0.0
2018-Aug-09 02:27N 47°16' W 122°25'0 0.0
2018-Aug-09 01:57N 47°16' W 122°25'0 0.0
2018-Aug-09 01:27N 47°16' W 122°25'0 0.0
2018-Aug-09 00:57N 47°16' W 122°25'0 0.0
2018-Aug-09 00:27N 47°16' W 122°25'0 0.0
2018-Aug-08 23:57N 47°16' W 122°25'0 0.0
2018-Aug-08 23:24N 47°16' W 122°25'0 0.0
2018-Aug-08 22:57N 47°16' W 122°25'0 0.0
2018-Aug-08 21:45N 47°16' W 122°25'0 0.0
2018-Aug-08 21:24N 47°16' W 122°25'0 0.0
2018-Aug-08 20:57N 47°16' W 122°25'0 0.0
2018-Aug-08 20:27N 47°16' W 122°25'0 0.0
2018-Aug-08 19:57N 47°16' W 122°25'0 0.0
2018-Aug-08 19:21N 47°16' W 122°25'0 0.0
2018-Aug-08 18:51N 47°16' W 122°25'0 0.0
2018-Aug-08 18:27N 47°16' W 122°25'0 0.0
2018-Aug-08 17:51N 47°16' W 122°25'0 0.0
2018-Aug-08 16:48N 47°16' W 122°25'0 0.0
2018-Aug-08 16:30N 47°16' W 122°25'0 0.0
2018-Aug-08 15:54N 47°16' W 122°25'0 0.0
2018-Aug-08 15:21N 47°16' W 122°25'0 0.0
2018-Aug-08 15:00N 47°16' W 122°25'0 0.0
2018-Aug-08 14:30N 47°16' W 122°25'0 0.0
2018-Aug-08 14:00N 47°16' W 122°25'0 0.0
2018-Aug-08 13:27N 47°16' W 122°25'0 0.0
2018-Aug-08 13:00N 47°16' W 122°25'0 0.0
2018-Aug-08 12:27N 47°16' W 122°25'0 0.0
2018-Aug-08 11:51N 47°16' W 122°25'0 0.0
2018-Aug-08 11:30N 47°16' W 122°25'0 0.0
2018-Aug-08 11:00N 47°16' W 122°25'0 0.0
2018-Aug-08 10:30N 47°16' W 122°25'0 0.0
2018-Aug-08 10:00N 47°16' W 122°25'0 0.0
2018-Aug-08 09:30N 47°16' W 122°25'0 0.0
2018-Aug-08 09:00N 47°16' W 122°25'0 0.0
2018-Aug-08 08:30N 47°16' W 122°25'0 0.0
2018-Aug-08 08:00N 47°16' W 122°25'0 0.0
2018-Aug-08 07:30N 47°16' W 122°25'0 0.0
2018-Aug-08 07:00N 47°16' W 122°25'0 0.0
2018-Aug-08 06:30N 47°16' W 122°25'0 0.0
2018-Aug-08 06:00N 47°16' W 122°25'0 0.0
2018-Aug-08 05:30N 47°16' W 122°25'0 0.0
2018-Aug-08 05:00N 47°16' W 122°25'0 0.0
2018-Aug-08 04:30N 47°16' W 122°25'0 0.0
2018-Aug-08 04:00N 47°16' W 122°25'0 0.0
2018-Aug-08 03:30N 47°16' W 122°25'0 0.0
2018-Aug-08 03:00N 47°16' W 122°25'0 0.0
2018-Aug-08 02:30N 47°16' W 122°25'0 0.0
2018-Aug-08 02:00N 47°16' W 122°25'0 0.0
2018-Aug-07 23:29N 47°16' W 122°25'1 1.2
2018-Aug-07 22:59N 47°17' W 122°26'2 4.7
2018-Aug-07 22:29N 47°18' W 122°28'612.6
2018-Aug-07 22:00N 47°23' W 122°22'816.3
2018-Aug-07 21:30N 47°31' W 122°26'917.6
2018-Aug-07 21:00N 47°39' W 122°28'1019.2
2018-Aug-07 20:30N 47°49' W 122°27'1019.8
2018-Aug-07 19:59N 47°58' W 122°35'1221.0
2018-Aug-07 19:24N 48°09' W 122°44'1320.4
2018-Aug-07 18:45N 48°12' W 123°03'720.3
2018-Aug-07 18:25N 48°12' W 123°13'914.7
2018-Aug-07 17:46N 48°11' W 123°27'714.9
2018-Aug-07 17:17N 48°14' W 123°38'515.2
2018-Aug-07 16:57N 48°14' W 123°45'715.7
2018-Aug-07 16:29N 48°14' W 123°57'919.0
2018-Aug-07 16:00N 48°18' W 124°09'918.9
2018-Aug-07 15:30N 48°22' W 124°21'917.6
2018-Aug-07 15:01N 48°26' W 124°33'917.1
2018-Aug-07 14:31N 48°28' W 124°45'917.8
2018-Aug-07 14:01N 48°28' W 124°59'918.0
2018-Aug-07 13:31N 48°28' W 125°12'917.9
2018-Aug-07 13:00N 48°28' W 125°26'918.1
2018-Aug-07 12:31N 48°28' W 125°40'918.1
2018-Aug-07 12:00N 48°31' W 125°53'918.0
2018-Aug-07 11:31N 48°33' W 126°06'918.4
2018-Aug-07 11:00N 48°33' W 126°20'918.2
2018-Aug-07 10:31N 48°34' W 126°33'918.2
2018-Aug-07 10:01N 48°34' W 126°47'918.9
2018-Aug-07 09:30N 48°34' W 127°02'1218.9
2018-Aug-07 08:52N 48°36' W 127°20'918.6
2018-Aug-07 08:25N 48°36' W 127°33'1618.7
2018-Aug-07 07:32N 48°38' W 127°57'2818.0
2018-Aug-07 06:00N 48°48' W 128°36'823.1 150 / 51020.010.8 16.714.915.6
2018-Aug-07 05:39N 48°52' W 128°46'6118.4
2018-Aug-07 02:21N 49°18' W 130°10'4017.2
2018-Aug-07 00:00N 49°36' W 131°06'32918.3 140 / 151019.9 5.4 17.215.416.7
2018-Aug-06 06:00N 51°30' W 139°12'10818.0 080 / 241013.0 5.4 14.412.515.0
2018-Aug-06 00:00N 52°00' W 142°00'11118.4 050 / 151012.7 0.3 16.114.315.0
2018-Aug-05 18:00N 52°30' W 144°54'11118.4 050 / 241012.0 0.3 13.311.412.8
2018-Aug-05 12:00N 52°48' W 147°54'11418.9 360 / 191012.810.8 12.210.212.8
2018-Aug-05 06:00N 53°06' W 151°00'12320.5 330 / 191013.5 12.210.212.2
2018-Aug-05 00:00N 53°18' W 154°24'10818.0 300 / 151014.910.8 16.112.411.1
2018-Aug-04 18:00N 53°30' W 157°24'   270 / 201016.7 13.912.011.7

Dump ship's entire track history